sensor_id;sensor_type;location;lat;lon;timestamp;temperature;humidity
52321;DHT22;38261;54.090;13.382;2023-08-30T00:01:20;15.50;99.90
52321;DHT22;38261;54.090;13.382;2023-08-30T00:02:42;15.50;99.90
52321;DHT22;38261;54.090;13.382;2023-08-30T00:04:04;15.40;99.90
52321;DHT22;38261;54.090;13.382;2023-08-30T00:05:26;15.40;99.90
52321;DHT22;38261;54.090;13.382;2023-08-30T00:06:49;15.40;99.90
52321;DHT22;38261;54.090;13.382;2023-08-30T00:08:11;15.40;99.90
52321;DHT22;38261;54.090;13.382;2023-08-30T00:09:35;15.40;99.90
52321;DHT22;38261;54.090;13.382;2023-08-30T00:10:58;15.30;99.90
52321;DHT22;38261;54.090;13.382;2023-08-30T00:12:20;15.30;99.90
52321;DHT22;38261;54.090;13.382;2023-08-30T00:13:43;15.30;99.90
52321;DHT22;38261;54.090;13.382;2023-08-30T00:15:06;15.30;99.90
52321;DHT22;38261;54.090;13.382;2023-08-30T00:16:28;15.30;99.90
52321;DHT22;38261;54.090;13.382;2023-08-30T00:17:50;15.30;99.90
52321;DHT22;38261;54.090;13.382;2023-08-30T00:19:15;15.30;99.90
52321;DHT22;38261;54.090;13.382;2023-08-30T00:20:38;15.30;99.90
52321;DHT22;38261;54.090;13.382;2023-08-30T00:22:00;15.30;99.90
52321;DHT22;38261;54.090;13.382;2023-08-30T00:23:22;15.30;99.90
52321;DHT22;38261;54.090;13.382;2023-08-30T00:24:44;15.20;99.90
52321;DHT22;38261;54.090;13.382;2023-08-30T00:26:07;15.20;99.90
52321;DHT22;38261;54.090;13.382;2023-08-30T00:27:29;15.20;99.90
52321;DHT22;38261;54.090;13.382;2023-08-30T00:28:51;15.20;99.90
52321;DHT22;38261;54.090;13.382;2023-08-30T00:30:13;15.30;99.90
52321;DHT22;38261;54.090;13.382;2023-08-30T00:31:35;15.20;99.90
52321;DHT22;38261;54.090;13.382;2023-08-30T00:32:57;15.20;99.90
52321;DHT22;38261;54.090;13.382;2023-08-30T00:34:20;15.20;99.90
52321;DHT22;38261;54.090;13.382;2023-08-30T00:35:42;15.20;99.90
52321;DHT22;38261;54.090;13.382;2023-08-30T00:37:04;15.20;99.90
52321;DHT22;38261;54.090;13.382;2023-08-30T00:38:27;15.20;99.90
52321;DHT22;38261;54.090;13.382;2023-08-30T00:39:49;15.20;99.90
52321;DHT22;38261;54.090;13.382;2023-08-30T00:41:11;15.20;99.90
52321;DHT22;38261;54.090;13.382;2023-08-30T00:42:34;15.20;99.90
52321;DHT22;38261;54.090;13.382;2023-08-30T00:43:56;15.20;99.90
52321;DHT22;38261;54.090;13.382;2023-08-30T00:45:18;15.20;99.90
52321;DHT22;38261;54.090;13.382;2023-08-30T00:46:40;15.20;99.90
52321;DHT22;38261;54.090;13.382;2023-08-30T00:48:03;15.10;99.90
52321;DHT22;38261;54.090;13.382;2023-08-30T00:49:26;15.20;99.90
52321;DHT22;38261;54.090;13.382;2023-08-30T00:50:48;15.10;99.90
52321;DHT22;38261;54.090;13.382;2023-08-30T00:52:11;15.10;99.90
52321;DHT22;38261;54.090;13.382;2023-08-30T00:53:33;15.10;99.90
52321;DHT22;38261;54.090;13.382;2023-08-30T00:54:56;15.00;99.90
52321;DHT22;38261;54.090;13.382;2023-08-30T00:56:18;15.00;99.90
52321;DHT22;38261;54.090;13.382;2023-08-30T00:57:41;15.00;99.90
52321;DHT22;38261;54.090;13.382;2023-08-30T00:59:04;14.90;99.90
52321;DHT22;38261;54.090;13.382;2023-08-30T01:00:26;14.90;99.90
52321;DHT22;38261;54.090;13.382;2023-08-30T01:01:50;14.90;99.90
52321;DHT22;38261;54.090;13.382;2023-08-30T01:03:12;14.90;99.90
52321;DHT22;38261;54.090;13.382;2023-08-30T01:04:35;14.90;99.90
52321;DHT22;38261;54.090;13.382;2023-08-30T01:05:57;14.90;99.90
52321;DHT22;38261;54.090;13.382;2023-08-30T01:07:19;14.90;99.90
52321;DHT22;38261;54.090;13.382;2023-08-30T01:08:42;14.90;99.90
52321;DHT22;38261;54.090;13.382;2023-08-30T01:10:05;14.90;99.90
52321;DHT22;38261;54.090;13.382;2023-08-30T01:11:39;14.90;99.90
52321;DHT22;38261;54.090;13.382;2023-08-30T01:13:08;14.90;99.90
52321;DHT22;38261;54.090;13.382;2023-08-30T01:14:57;14.90;99.90
52321;DHT22;38261;54.090;13.382;2023-08-30T01:16:20;14.90;99.90
52321;DHT22;38261;54.090;13.382;2023-08-30T01:17:44;14.90;99.90
52321;DHT22;38261;54.090;13.382;2023-08-30T01:19:38;14.90;99.90
52321;DHT22;38261;54.090;13.382;2023-08-30T01:21:04;14.90;99.90
52321;DHT22;38261;54.090;13.382;2023-08-30T01:22:59;14.90;99.90
52321;DHT22;38261;54.090;13.382;2023-08-30T01:24:35;14.90;99.90
52321;DHT22;38261;54.090;13.382;2023-08-30T01:27:43;14.90;99.90
52321;DHT22;38261;54.090;13.382;2023-08-30T01:29:09;14.90;99.90
52321;DHT22;38261;54.090;13.382;2023-08-30T01:30:33;14.90;99.90
52321;DHT22;38261;54.090;13.382;2023-08-30T01:31:56;14.90;99.90
52321;DHT22;38261;54.090;13.382;2023-08-30T01:33:19;14.90;99.90
52321;DHT22;38261;54.090;13.382;2023-08-30T01:34:42;14.90;99.90
52321;DHT22;38261;54.090;13.382;2023-08-30T01:36:07;14.90;99.90
52321;DHT22;38261;54.090;13.382;2023-08-30T01:37:29;14.90;99.90
52321;DHT22;38261;54.090;13.382;2023-08-30T01:38:52;14.90;99.90
52321;DHT22;38261;54.090;13.382;2023-08-30T01:40:16;14.80;99.90
52321;DHT22;38261;54.090;13.382;2023-08-30T01:41:39;14.80;99.90
52321;DHT22;38261;54.090;13.382;2023-08-30T01:43:02;14.80;99.90
52321;DHT22;38261;54.090;13.382;2023-08-30T01:44:27;14.80;99.90
52321;DHT22;38261;54.090;13.382;2023-08-30T01:45:50;14.80;99.90
52321;DHT22;38261;54.090;13.382;2023-08-30T01:47:12;14.70;99.90
52321;DHT22;38261;54.090;13.382;2023-08-30T01:48:35;14.80;99.90
52321;DHT22;38261;54.090;13.382;2023-08-30T01:49:58;14.80;99.90
52321;DHT22;38261;54.090;13.382;2023-08-30T01:51:20;14.70;99.90
52321;DHT22;38261;54.090;13.382;2023-08-30T01:52:42;14.70;99.90
52321;DHT22;38261;54.090;13.382;2023-08-30T01:54:05;14.70;99.90
52321;DHT22;38261;54.090;13.382;2023-08-30T01:55:28;14.70;99.90
52321;DHT22;38261;54.090;13.382;2023-08-30T01:56:51;14.70;99.90
52321;DHT22;38261;54.090;13.382;2023-08-30T01:58:14;14.70;99.90
52321;DHT22;38261;54.090;13.382;2023-08-30T01:59:36;14.70;99.90
52321;DHT22;38261;54.090;13.382;2023-08-30T02:00:58;14.60;99.90
52321;DHT22;38261;54.090;13.382;2023-08-30T02:02:21;14.60;99.90
52321;DHT22;38261;54.090;13.382;2023-08-30T02:03:44;14.60;99.90
52321;DHT22;38261;54.090;13.382;2023-08-30T02:05:07;14.60;99.90
52321;DHT22;38261;54.090;13.382;2023-08-30T02:06:45;14.60;99.90
52321;DHT22;38261;54.090;13.382;2023-08-30T02:08:16;14.60;99.90
52321;DHT22;38261;54.090;13.382;2023-08-30T02:10:04;14.60;99.90
52321;DHT22;38261;54.090;13.382;2023-08-30T02:11:28;14.60;99.90
52321;DHT22;38261;54.090;13.382;2023-08-30T02:12:54;14.60;99.90
52321;DHT22;38261;54.090;13.382;2023-08-30T02:14:18;14.60;99.90
52321;DHT22;38261;54.090;13.382;2023-08-30T02:15:41;14.70;99.90
52321;DHT22;38261;54.090;13.382;2023-08-30T02:17:06;14.60;99.90
52321;DHT22;38261;54.090;13.382;2023-08-30T02:18:28;14.70;99.90
52321;DHT22;38261;54.090;13.382;2023-08-30T02:19:51;14.70;99.90
52321;DHT22;38261;54.090;13.382;2023-08-30T02:21:15;14.70;99.90
52321;DHT22;38261;54.090;13.382;2023-08-30T02:22:37;14.70;99.90
52321;DHT22;38261;54.090;13.382;2023-08-30T02:24:00;14.70;99.90
52321;DHT22;38261;54.090;13.382;2023-08-30T02:25:22;14.70;99.90
52321;DHT22;38261;54.090;13.382;2023-08-30T02:26:46;14.70;99.90
52321;DHT22;38261;54.090;13.382;2023-08-30T02:28:08;14.70;99.90
52321;DHT22;38261;54.090;13.382;2023-08-30T02:29:31;14.70;99.90
52321;DHT22;38261;54.090;13.382;2023-08-30T02:30:53;14.70;99.90
52321;DHT22;38261;54.090;13.382;2023-08-30T02:32:16;14.70;99.90
52321;DHT22;38261;54.090;13.382;2023-08-30T02:33:42;14.60;99.90
52321;DHT22;38261;54.090;13.382;2023-08-30T02:35:05;14.60;99.90
52321;DHT22;38261;54.090;13.382;2023-08-30T02:36:27;14.60;99.90
52321;DHT22;38261;54.090;13.382;2023-08-30T02:37:49;14.60;99.90
52321;DHT22;38261;54.090;13.382;2023-08-30T02:40:35;14.50;99.90
52321;DHT22;38261;54.090;13.382;2023-08-30T02:41:57;14.60;99.90
52321;DHT22;38261;54.090;13.382;2023-08-30T02:43:19;14.50;99.90
52321;DHT22;38261;54.090;13.382;2023-08-30T02:44:41;14.50;99.90
52321;DHT22;38261;54.090;13.382;2023-08-30T02:46:03;14.40;99.90
52321;DHT22;38261;54.090;13.382;2023-08-30T02:47:27;14.40;99.90
52321;DHT22;38261;54.090;13.382;2023-08-30T02:48:49;14.40;99.90
52321;DHT22;38261;54.090;13.382;2023-08-30T02:50:11;14.40;99.90
52321;DHT22;38261;54.090;13.382;2023-08-30T02:51:34;14.40;99.90
52321;DHT22;38261;54.090;13.382;2023-08-30T02:52:56;14.30;99.90
52321;DHT22;38261;54.090;13.382;2023-08-30T02:54:18;14.40;99.90
52321;DHT22;38261;54.090;13.382;2023-08-30T02:55:40;14.40;99.90
52321;DHT22;38261;54.090;13.382;2023-08-30T02:57:02;14.30;99.90
52321;DHT22;38261;54.090;13.382;2023-08-30T02:58:25;14.30;99.90
52321;DHT22;38261;54.090;13.382;2023-08-30T02:59:47;14.30;99.90
52321;DHT22;38261;54.090;13.382;2023-08-30T03:01:09;14.30;99.90
52321;DHT22;38261;54.090;13.382;2023-08-30T03:02:32;14.30;99.90
52321;DHT22;38261;54.090;13.382;2023-08-30T03:03:55;14.30;99.90
52321;DHT22;38261;54.090;13.382;2023-08-30T03:05:17;14.30;99.90
52321;DHT22;38261;54.090;13.382;2023-08-30T03:06:39;14.30;99.90
52321;DHT22;38261;54.090;13.382;2023-08-30T03:08:02;14.30;99.90
52321;DHT22;38261;54.090;13.382;2023-08-30T03:09:24;14.30;99.90
52321;DHT22;38261;54.090;13.382;2023-08-30T03:10:46;14.30;99.90
52321;DHT22;38261;54.090;13.382;2023-08-30T03:12:08;14.30;99.90
52321;DHT22;38261;54.090;13.382;2023-08-30T03:13:30;14.20;99.90
52321;DHT22;38261;54.090;13.382;2023-08-30T03:14:53;14.20;99.90
52321;DHT22;38261;54.090;13.382;2023-08-30T03:16:16;14.30;99.90
52321;DHT22;38261;54.090;13.382;2023-08-30T03:17:38;14.20;99.90
52321;DHT22;38261;54.090;13.382;2023-08-30T03:19:01;14.20;99.90
52321;DHT22;38261;54.090;13.382;2023-08-30T03:20:23;14.20;99.90
52321;DHT22;38261;54.090;13.382;2023-08-30T03:21:45;14.20;99.90
52321;DHT22;38261;54.090;13.382;2023-08-30T03:23:08;14.20;99.90
52321;DHT22;38261;54.090;13.382;2023-08-30T03:24:30;14.20;99.90
52321;DHT22;38261;54.090;13.382;2023-08-30T03:25:52;14.20;99.90
52321;DHT22;38261;54.090;13.382;2023-08-30T03:27:14;14.20;99.90
52321;DHT22;38261;54.090;13.382;2023-08-30T03:28:37;14.10;99.90
52321;DHT22;38261;54.090;13.382;2023-08-30T03:30:00;14.10;99.90
52321;DHT22;38261;54.090;13.382;2023-08-30T03:31:22;14.10;99.90
52321;DHT22;38261;54.090;13.382;2023-08-30T03:32:45;14.10;99.90
52321;DHT22;38261;54.090;13.382;2023-08-30T03:34:07;14.10;99.90
52321;DHT22;38261;54.090;13.382;2023-08-30T03:35:34;14.10;99.90
52321;DHT22;38261;54.090;13.382;2023-08-30T03:36:56;14.10;99.90
52321;DHT22;38261;54.090;13.382;2023-08-30T03:38:19;14.00;99.90
52321;DHT22;38261;54.090;13.382;2023-08-30T03:39:41;14.00;99.90
52321;DHT22;38261;54.090;13.382;2023-08-30T03:41:04;14.00;99.90
52321;DHT22;38261;54.090;13.382;2023-08-30T03:42:26;14.00;99.90
52321;DHT22;38261;54.090;13.382;2023-08-30T03:43:48;14.00;99.90
52321;DHT22;38261;54.090;13.382;2023-08-30T03:45:10;14.00;99.90
52321;DHT22;38261;54.090;13.382;2023-08-30T03:46:32;14.00;99.90
52321;DHT22;38261;54.090;13.382;2023-08-30T03:47:54;14.00;99.90
52321;DHT22;38261;54.090;13.382;2023-08-30T03:49:16;14.00;99.90
52321;DHT22;38261;54.090;13.382;2023-08-30T03:50:39;13.90;99.90
52321;DHT22;38261;54.090;13.382;2023-08-30T03:52:01;14.00;99.90
52321;DHT22;38261;54.090;13.382;2023-08-30T03:53:23;14.00;99.90
52321;DHT22;38261;54.090;13.382;2023-08-30T03:54:46;14.00;99.90
52321;DHT22;38261;54.090;13.382;2023-08-30T03:56:08;14.00;99.90
52321;DHT22;38261;54.090;13.382;2023-08-30T03:57:30;14.00;99.90
52321;DHT22;38261;54.090;13.382;2023-08-30T03:58:52;14.00;99.90
52321;DHT22;38261;54.090;13.382;2023-08-30T04:00:15;14.00;99.90
52321;DHT22;38261;54.090;13.382;2023-08-30T04:01:37;13.90;99.90
52321;DHT22;38261;54.090;13.382;2023-08-30T04:02:59;14.00;99.90
52321;DHT22;38261;54.090;13.382;2023-08-30T04:04:21;14.00;99.90
52321;DHT22;38261;54.090;13.382;2023-08-30T04:05:44;13.90;99.90
52321;DHT22;38261;54.090;13.382;2023-08-30T04:07:06;14.00;99.90
52321;DHT22;38261;54.090;13.382;2023-08-30T04:08:28;14.00;99.90
52321;DHT22;38261;54.090;13.382;2023-08-30T04:09:50;14.00;99.90
52321;DHT22;38261;54.090;13.382;2023-08-30T04:11:12;14.00;99.90
52321;DHT22;38261;54.090;13.382;2023-08-30T04:12:36;14.00;99.90
52321;DHT22;38261;54.090;13.382;2023-08-30T04:13:58;14.00;99.90
52321;DHT22;38261;54.090;13.382;2023-08-30T04:15:20;14.00;99.90
52321;DHT22;38261;54.090;13.382;2023-08-30T04:16:42;14.00;99.90
52321;DHT22;38261;54.090;13.382;2023-08-30T04:18:05;14.00;99.90
52321;DHT22;38261;54.090;13.382;2023-08-30T04:19:28;14.00;99.90
52321;DHT22;38261;54.090;13.382;2023-08-30T04:20:50;14.00;99.90
52321;DHT22;38261;54.090;13.382;2023-08-30T04:22:13;14.10;99.90
52321;DHT22;38261;54.090;13.382;2023-08-30T04:23:35;14.10;99.90
52321;DHT22;38261;54.090;13.382;2023-08-30T04:24:57;14.10;99.90
52321;DHT22;38261;54.090;13.382;2023-08-30T04:26:19;14.10;99.90
52321;DHT22;38261;54.090;13.382;2023-08-30T04:27:41;14.20;99.90
52321;DHT22;38261;54.090;13.382;2023-08-30T04:29:03;14.20;99.90
52321;DHT22;38261;54.090;13.382;2023-08-30T04:30:26;14.20;99.90
52321;DHT22;38261;54.090;13.382;2023-08-30T04:31:48;14.30;99.90
52321;DHT22;38261;54.090;13.382;2023-08-30T04:33:10;14.30;99.90
52321;DHT22;38261;54.090;13.382;2023-08-30T04:34:32;14.30;99.90
52321;DHT22;38261;54.090;13.382;2023-08-30T04:35:55;14.30;99.90
52321;DHT22;38261;54.090;13.382;2023-08-30T04:37:17;14.40;99.90
52321;DHT22;38261;54.090;13.382;2023-08-30T04:38:39;14.40;99.90
52321;DHT22;38261;54.090;13.382;2023-08-30T04:40:21;14.40;99.90
52321;DHT22;38261;54.090;13.382;2023-08-30T04:41:46;14.50;99.90
52321;DHT22;38261;54.090;13.382;2023-08-30T04:43:08;14.50;99.90
52321;DHT22;38261;54.090;13.382;2023-08-30T04:44:30;14.50;99.90
52321;DHT22;38261;54.090;13.382;2023-08-30T04:45:54;14.50;99.90
52321;DHT22;38261;54.090;13.382;2023-08-30T04:47:16;14.50;99.90
52321;DHT22;38261;54.090;13.382;2023-08-30T04:48:38;14.50;99.90
52321;DHT22;38261;54.090;13.382;2023-08-30T04:50:00;14.50;99.90
52321;DHT22;38261;54.090;13.382;2023-08-30T04:51:22;14.50;99.90
52321;DHT22;38261;54.090;13.382;2023-08-30T04:52:44;14.50;99.90
52321;DHT22;38261;54.090;13.382;2023-08-30T04:54:07;14.50;99.90
52321;DHT22;38261;54.090;13.382;2023-08-30T04:55:29;14.50;99.90
52321;DHT22;38261;54.090;13.382;2023-08-30T04:56:51;14.50;99.90
52321;DHT22;38261;54.090;13.382;2023-08-30T04:58:14;14.50;99.90
52321;DHT22;38261;54.090;13.382;2023-08-30T04:59:36;14.60;99.90
52321;DHT22;38261;54.090;13.382;2023-08-30T05:00:58;14.60;99.90
52321;DHT22;38261;54.090;13.382;2023-08-30T05:02:20;14.60;99.90
52321;DHT22;38261;54.090;13.382;2023-08-30T05:03:42;14.60;99.90
52321;DHT22;38261;54.090;13.382;2023-08-30T05:05:05;14.60;99.90
52321;DHT22;38261;54.090;13.382;2023-08-30T05:06:27;14.60;99.90
52321;DHT22;38261;54.090;13.382;2023-08-30T05:07:49;14.60;99.90
52321;DHT22;38261;54.090;13.382;2023-08-30T05:09:11;14.60;99.90
52321;DHT22;38261;54.090;13.382;2023-08-30T05:10:33;14.60;99.90
52321;DHT22;38261;54.090;13.382;2023-08-30T05:11:56;14.60;99.90
52321;DHT22;38261;54.090;13.382;2023-08-30T05:13:18;14.60;99.90
52321;DHT22;38261;54.090;13.382;2023-08-30T05:14:40;14.60;99.90
52321;DHT22;38261;54.090;13.382;2023-08-30T05:16:03;14.60;99.90
52321;DHT22;38261;54.090;13.382;2023-08-30T05:17:25;14.70;99.90
52321;DHT22;38261;54.090;13.382;2023-08-30T05:18:50;14.70;99.90
52321;DHT22;38261;54.090;13.382;2023-08-30T05:20:12;14.70;99.90
52321;DHT22;38261;54.090;13.382;2023-08-30T05:21:34;14.70;99.90
52321;DHT22;38261;54.090;13.382;2023-08-30T05:22:57;14.70;99.90
52321;DHT22;38261;54.090;13.382;2023-08-30T05:24:19;14.70;99.90
52321;DHT22;38261;54.090;13.382;2023-08-30T05:25:41;14.80;99.90
52321;DHT22;38261;54.090;13.382;2023-08-30T05:27:03;14.80;99.90
52321;DHT22;38261;54.090;13.382;2023-08-30T05:28:25;14.90;99.90
52321;DHT22;38261;54.090;13.382;2023-08-30T05:29:47;14.90;99.90
52321;DHT22;38261;54.090;13.382;2023-08-30T05:31:09;15.00;99.90
52321;DHT22;38261;54.090;13.382;2023-08-30T05:32:32;15.10;99.90
52321;DHT22;38261;54.090;13.382;2023-08-30T05:33:54;15.10;99.90
52321;DHT22;38261;54.090;13.382;2023-08-30T05:35:16;15.10;99.90
52321;DHT22;38261;54.090;13.382;2023-08-30T05:36:38;15.20;99.90
52321;DHT22;38261;54.090;13.382;2023-08-30T05:38:00;15.30;99.90
52321;DHT22;38261;54.090;13.382;2023-08-30T05:39:23;15.30;99.90
52321;DHT22;38261;54.090;13.382;2023-08-30T05:40:45;15.40;99.90
52321;DHT22;38261;54.090;13.382;2023-08-30T05:42:07;15.40;99.90
52321;DHT22;38261;54.090;13.382;2023-08-30T05:43:29;15.50;99.90
52321;DHT22;38261;54.090;13.382;2023-08-30T05:44:52;15.50;99.90
52321;DHT22;38261;54.090;13.382;2023-08-30T05:46:14;15.50;99.90
52321;DHT22;38261;54.090;13.382;2023-08-30T05:47:37;15.50;99.90
52321;DHT22;38261;54.090;13.382;2023-08-30T05:48:59;15.60;99.90
52321;DHT22;38261;54.090;13.382;2023-08-30T05:50:24;15.60;99.90
52321;DHT22;38261;54.090;13.382;2023-08-30T05:51:46;15.70;99.90
52321;DHT22;38261;54.090;13.382;2023-08-30T05:53:09;15.70;99.90
52321;DHT22;38261;54.090;13.382;2023-08-30T05:54:31;15.70;99.90
52321;DHT22;38261;54.090;13.382;2023-08-30T05:55:55;15.80;99.90
52321;DHT22;38261;54.090;13.382;2023-08-30T05:57:17;15.80;99.90
52321;DHT22;38261;54.090;13.382;2023-08-30T05:58:39;15.90;99.90
52321;DHT22;38261;54.090;13.382;2023-08-30T06:00:02;15.90;99.90
52321;DHT22;38261;54.090;13.382;2023-08-30T06:01:26;15.90;99.90
52321;DHT22;38261;54.090;13.382;2023-08-30T06:02:48;16.00;99.90
52321;DHT22;38261;54.090;13.382;2023-08-30T06:04:13;16.00;99.90
52321;DHT22;38261;54.090;13.382;2023-08-30T06:05:35;16.10;99.90
52321;DHT22;38261;54.090;13.382;2023-08-30T06:06:57;16.10;99.90
52321;DHT22;38261;54.090;13.382;2023-08-30T06:08:20;16.10;99.90
52321;DHT22;38261;54.090;13.382;2023-08-30T06:09:42;16.10;99.90
52321;DHT22;38261;54.090;13.382;2023-08-30T06:11:04;16.20;99.90
52321;DHT22;38261;54.090;13.382;2023-08-30T06:12:26;16.20;99.90
52321;DHT22;38261;54.090;13.382;2023-08-30T06:13:49;16.20;99.90
52321;DHT22;38261;54.090;13.382;2023-08-30T06:15:11;16.30;99.90
52321;DHT22;38261;54.090;13.382;2023-08-30T06:16:33;16.30;99.90
52321;DHT22;38261;54.090;13.382;2023-08-30T06:17:55;16.40;99.90
52321;DHT22;38261;54.090;13.382;2023-08-30T06:19:18;16.40;99.90
52321;DHT22;38261;54.090;13.382;2023-08-30T06:20:40;16.50;99.90
52321;DHT22;38261;54.090;13.382;2023-08-30T06:22:03;16.50;99.90
52321;DHT22;38261;54.090;13.382;2023-08-30T06:23:25;16.60;99.90
52321;DHT22;38261;54.090;13.382;2023-08-30T06:24:48;16.60;99.90
52321;DHT22;38261;54.090;13.382;2023-08-30T06:26:10;16.80;99.90
52321;DHT22;38261;54.090;13.382;2023-08-30T06:27:32;16.90;99.90
52321;DHT22;38261;54.090;13.382;2023-08-30T06:28:54;16.90;99.90
52321;DHT22;38261;54.090;13.382;2023-08-30T06:30:26;17.00;99.90
52321;DHT22;38261;54.090;13.382;2023-08-30T06:31:48;17.00;99.90
52321;DHT22;38261;54.090;13.382;2023-08-30T06:33:13;17.10;99.90
52321;DHT22;38261;54.090;13.382;2023-08-30T06:34:35;17.10;99.90
52321;DHT22;38261;54.090;13.382;2023-08-30T06:35:57;17.10;99.90
52321;DHT22;38261;54.090;13.382;2023-08-30T06:37:20;17.20;99.90
52321;DHT22;38261;54.090;13.382;2023-08-30T06:38:42;17.20;99.90
52321;DHT22;38261;54.090;13.382;2023-08-30T06:40:04;17.30;99.90
52321;DHT22;38261;54.090;13.382;2023-08-30T06:41:27;17.30;99.90
52321;DHT22;38261;54.090;13.382;2023-08-30T06:42:49;17.40;99.90
52321;DHT22;38261;54.090;13.382;2023-08-30T06:44:11;17.40;99.90
52321;DHT22;38261;54.090;13.382;2023-08-30T06:45:33;17.40;99.90
52321;DHT22;38261;54.090;13.382;2023-08-30T06:46:58;17.50;99.90
52321;DHT22;38261;54.090;13.382;2023-08-30T06:48:23;17.60;99.90
52321;DHT22;38261;54.090;13.382;2023-08-30T06:49:45;17.70;99.90
52321;DHT22;38261;54.090;13.382;2023-08-30T06:51:07;17.80;99.90
52321;DHT22;38261;54.090;13.382;2023-08-30T06:52:30;17.90;99.90
52321;DHT22;38261;54.090;13.382;2023-08-30T06:53:52;18.00;99.90
52321;DHT22;38261;54.090;13.382;2023-08-30T06:55:14;18.10;99.90
52321;DHT22;38261;54.090;13.382;2023-08-30T06:56:36;18.20;99.90
52321;DHT22;38261;54.090;13.382;2023-08-30T06:57:58;18.20;99.90
52321;DHT22;38261;54.090;13.382;2023-08-30T06:59:21;18.30;99.90
52321;DHT22;38261;54.090;13.382;2023-08-30T07:00:43;18.30;99.90
52321;DHT22;38261;54.090;13.382;2023-08-30T07:02:05;18.30;99.90
52321;DHT22;38261;54.090;13.382;2023-08-30T07:03:27;18.30;99.90
52321;DHT22;38261;54.090;13.382;2023-08-30T07:04:50;18.40;99.90
52321;DHT22;38261;54.090;13.382;2023-08-30T07:06:12;18.30;99.90
52321;DHT22;38261;54.090;13.382;2023-08-30T07:07:34;18.30;99.90
52321;DHT22;38261;54.090;13.382;2023-08-30T07:08:56;18.30;99.90
52321;DHT22;38261;54.090;13.382;2023-08-30T07:10:18;18.30;99.90
52321;DHT22;38261;54.090;13.382;2023-08-30T07:11:42;18.30;99.90
52321;DHT22;38261;54.090;13.382;2023-08-30T07:13:06;18.40;99.90
52321;DHT22;38261;54.090;13.382;2023-08-30T07:14:32;18.40;99.90
52321;DHT22;38261;54.090;13.382;2023-08-30T07:15:54;18.40;99.90
52321;DHT22;38261;54.090;13.382;2023-08-30T07:17:16;18.50;99.90
52321;DHT22;38261;54.090;13.382;2023-08-30T07:18:38;18.60;99.90
52321;DHT22;38261;54.090;13.382;2023-08-30T07:20:01;18.60;99.90
52321;DHT22;38261;54.090;13.382;2023-08-30T07:21:25;18.70;99.90
52321;DHT22;38261;54.090;13.382;2023-08-30T07:22:47;18.70;99.90
52321;DHT22;38261;54.090;13.382;2023-08-30T07:24:09;18.70;99.90
52321;DHT22;38261;54.090;13.382;2023-08-30T07:25:31;18.80;99.90
52321;DHT22;38261;54.090;13.382;2023-08-30T07:26:55;18.90;99.90
52321;DHT22;38261;54.090;13.382;2023-08-30T07:28:17;19.00;99.90
52321;DHT22;38261;54.090;13.382;2023-08-30T07:29:39;19.00;99.90
52321;DHT22;38261;54.090;13.382;2023-08-30T07:31:05;19.00;99.90
52321;DHT22;38261;54.090;13.382;2023-08-30T07:32:29;19.00;99.90
52321;DHT22;38261;54.090;13.382;2023-08-30T07:33:51;19.00;99.90
52321;DHT22;38261;54.090;13.382;2023-08-30T07:35:13;18.90;99.90
52321;DHT22;38261;54.090;13.382;2023-08-30T07:36:36;19.00;99.90
52321;DHT22;38261;54.090;13.382;2023-08-30T07:38:08;19.10;99.90
52321;DHT22;38261;54.090;13.382;2023-08-30T07:39:30;19.20;99.90
52321;DHT22;38261;54.090;13.382;2023-08-30T07:40:53;19.30;99.90
52321;DHT22;38261;54.090;13.382;2023-08-30T07:42:15;19.40;99.90
52321;DHT22;38261;54.090;13.382;2023-08-30T07:43:37;19.50;99.90
52321;DHT22;38261;54.090;13.382;2023-08-30T07:45:00;19.60;99.90
52321;DHT22;38261;54.090;13.382;2023-08-30T07:46:22;19.70;99.90
52321;DHT22;38261;54.090;13.382;2023-08-30T07:47:44;19.90;99.90
52321;DHT22;38261;54.090;13.382;2023-08-30T07:49:06;19.90;99.90
52321;DHT22;38261;54.090;13.382;2023-08-30T07:50:28;19.90;99.90
52321;DHT22;38261;54.090;13.382;2023-08-30T07:51:50;19.90;99.90
52321;DHT22;38261;54.090;13.382;2023-08-30T07:53:13;19.90;99.90
52321;DHT22;38261;54.090;13.382;2023-08-30T07:54:35;20.00;99.90
52321;DHT22;38261;54.090;13.382;2023-08-30T07:55:57;20.10;99.90
52321;DHT22;38261;54.090;13.382;2023-08-30T07:57:19;20.10;99.90
52321;DHT22;38261;54.090;13.382;2023-08-30T07:58:41;20.10;99.90
52321;DHT22;38261;54.090;13.382;2023-08-30T08:00:07;20.20;99.90
52321;DHT22;38261;54.090;13.382;2023-08-30T08:01:29;20.20;99.90
52321;DHT22;38261;54.090;13.382;2023-08-30T08:02:52;20.30;99.90
52321;DHT22;38261;54.090;13.382;2023-08-30T08:04:14;20.30;99.90
52321;DHT22;38261;54.090;13.382;2023-08-30T08:05:36;20.20;99.90
52321;DHT22;38261;54.090;13.382;2023-08-30T08:06:59;20.30;99.90
52321;DHT22;38261;54.090;13.382;2023-08-30T08:08:23;20.30;99.90
52321;DHT22;38261;54.090;13.382;2023-08-30T08:09:45;20.30;99.90
52321;DHT22;38261;54.090;13.382;2023-08-30T08:11:07;20.30;99.90
52321;DHT22;38261;54.090;13.382;2023-08-30T08:12:29;20.40;99.90
52321;DHT22;38261;54.090;13.382;2023-08-30T08:13:51;20.30;99.90
52321;DHT22;38261;54.090;13.382;2023-08-30T08:15:14;20.30;99.90
52321;DHT22;38261;54.090;13.382;2023-08-30T08:16:36;20.50;99.90
52321;DHT22;38261;54.090;13.382;2023-08-30T08:17:58;20.70;99.90
52321;DHT22;38261;54.090;13.382;2023-08-30T08:19:20;20.70;99.90
52321;DHT22;38261;54.090;13.382;2023-08-30T08:20:47;20.80;99.90
52321;DHT22;38261;54.090;13.382;2023-08-30T08:22:09;20.90;99.90
52321;DHT22;38261;54.090;13.382;2023-08-30T08:23:31;21.10;99.90
52321;DHT22;38261;54.090;13.382;2023-08-30T08:24:54;21.20;99.90
52321;DHT22;38261;54.090;13.382;2023-08-30T08:26:18;21.10;99.90
52321;DHT22;38261;54.090;13.382;2023-08-30T08:27:40;20.90;99.90
52321;DHT22;38261;54.090;13.382;2023-08-30T08:29:02;20.90;99.90
52321;DHT22;38261;54.090;13.382;2023-08-30T08:30:25;20.90;99.90
52321;DHT22;38261;54.090;13.382;2023-08-30T08:31:47;21.00;99.90
52321;DHT22;38261;54.090;13.382;2023-08-30T08:33:10;21.10;99.90
52321;DHT22;38261;54.090;13.382;2023-08-30T08:34:33;21.20;99.90
52321;DHT22;38261;54.090;13.382;2023-08-30T08:35:55;21.20;99.90
52321;DHT22;38261;54.090;13.382;2023-08-30T08:37:17;21.40;99.90
52321;DHT22;38261;54.090;13.382;2023-08-30T08:38:39;21.60;99.90
52321;DHT22;38261;54.090;13.382;2023-08-30T08:40:01;21.80;99.90